createdAt,value
2019-01-17T00:00:38.913Z,81.13
2019-01-17T00:03:10.346Z,80.51
2019-01-17T00:05:44.673Z,80.94
2019-01-17T00:08:33.990Z,81.28
2019-01-17T00:11:10.817Z,81.90
2019-01-17T00:13:53.453Z,82.37
2019-01-17T00:16:34.679Z,82.08
2019-01-17T00:19:20.993Z,81.67
2019-01-17T00:22:07.844Z,83.06
2019-01-17T00:24:48.334Z,83.86
2019-01-17T00:27:26.679Z,83.29
2019-01-17T00:30:06.981Z,83.89
2019-01-17T00:32:46.993Z,83.57
2019-01-17T00:35:16.334Z,84.04
2019-01-17T00:37:47.462Z,84.18
2019-01-17T00:40:35.255Z,83.51
2019-01-17T00:43:06.812Z,83.40
2019-01-17T00:45:43.988Z,84.39
2019-01-17T00:48:33.833Z,85.46
2019-01-17T00:51:07.980Z,84.79
2019-01-17T00:53:39.129Z,84.64
2019-01-17T00:56:13.016Z,84.51
2019-01-17T00:59:02.014Z,84.07
2019-01-17T01:01:45.082Z,85.31
2019-01-17T01:04:26.872Z,86.91
2019-01-17T01:07:01.908Z,87.10
2019-01-17T01:09:54.389Z,85.96
2019-01-17T01:12:33.030Z,85.36
2019-01-17T01:15:05.831Z,85.43
2019-01-17T01:17:39.614Z,84.56
2019-01-17T01:20:28.777Z,84.27
2019-01-17T01:23:02.420Z,84.56
2019-01-17T01:25:37.152Z,85.39
2019-01-17T01:28:23.292Z,86.04
2019-01-17T01:30:57.552Z,85.58
2019-01-17T01:33:37.514Z,84.71
2019-01-17T01:36:24.874Z,85.03
2019-01-17T01:38:56.022Z,84.56
2019-01-17T01:41:29.631Z,85.48
2019-01-17T01:44:06.642Z,85.44
2019-01-17T01:46:49.394Z,85.28
2019-01-17T01:49:29.284Z,86.41
2019-01-17T01:52:06.106Z,86.31
2019-01-17T01:54:35.643Z,84.98
2019-01-17T01:57:05.203Z,85.38
2019-01-17T01:59:35.401Z,84.57
2019-01-17T02:02:05.056Z,84.95
2019-01-17T02:04:34.538Z,84.87
2019-01-17T02:07:04.101Z,84.87
2019-01-17T02:09:34.004Z,84.51
2019-01-17T02:12:03.689Z,85.17
2019-01-17T02:14:33.368Z,84.69
2019-01-17T02:17:03.335Z,85.08
2019-01-17T02:19:32.921Z,84.54
2019-01-17T02:22:02.461Z,84.65
2019-01-17T02:24:31.968Z,85.21
2019-01-17T02:27:01.516Z,85.31
2019-01-17T02:29:31.044Z,84.97
2019-01-17T02:32:00.763Z,85.08
2019-01-17T02:34:30.272Z,84.92
2019-01-17T02:36:59.826Z,85.93
2019-01-17T02:39:29.396Z,85.42
2019-01-17T02:41:58.906Z,84.55
2019-01-17T02:44:28.428Z,84.22
2019-01-17T02:46:58.062Z,83.64
2019-01-17T02:49:27.537Z,84.22
2019-01-17T02:51:57.054Z,84.40
2019-01-17T02:54:26.693Z,84.09
2019-01-17T02:56:56.178Z,84.17
2019-01-17T02:59:25.662Z,84.63
2019-01-17T03:01:55.182Z,84.31
2019-01-17T03:04:24.657Z,83.51
2019-01-17T03:06:54.143Z,83.17
2019-01-17T03:09:24.343Z,83.73
2019-01-17T03:11:54.229Z,83.48
2019-01-17T03:14:23.920Z,83.05
2019-01-17T03:16:54.192Z,82.85
2019-01-17T03:19:23.670Z,82.48
2019-01-17T03:21:53.225Z,82.61
2019-01-17T03:24:23.613Z,82.58
2019-01-17T03:26:53.614Z,83.14
2019-01-17T03:29:23.166Z,83.12
2019-01-17T03:31:52.676Z,83.64
2019-01-17T03:34:22.159Z,82.77
2019-01-17T03:36:51.655Z,82.18
2019-01-17T03:39:21.216Z,81.40
2019-01-17T03:41:51.050Z,81.00
2019-01-17T03:44:20.517Z,80.29
2019-01-17T03:46:50.043Z,80.28
2019-01-17T03:49:19.541Z,80.30
2019-01-17T03:51:49.110Z,80.21
2019-01-17T03:54:18.658Z,80.47
2019-01-17T03:56:48.140Z,80.04
2019-01-17T03:59:17.660Z,80.36
2019-01-17T04:01:47.220Z,80.47
2019-01-17T04:04:16.678Z,81.28
2019-01-17T04:06:46.227Z,80.62
2019-01-17T04:09:15.732Z,80.79
2019-01-17T04:11:45.209Z,80.47
2019-01-17T04:14:14.695Z,79.86
2019-01-17T04:16:44.201Z,80.18
2019-01-17T04:19:13.704Z,80.38
2019-01-17T04:21:43.192Z,81.02
2019-01-17T04:24:12.941Z,81.12
2019-01-17T04:26:42.400Z,81.55
2019-01-17T04:29:12.029Z,81.87
2019-01-17T04:31:41.517Z,81.41
2019-01-17T04:34:11.010Z,81.12
2019-01-17T04:36:40.518Z,80.92
2019-01-17T04:39:10.014Z,80.77
2019-01-17T04:41:39.502Z,80.60
2019-01-17T04:44:08.975Z,80.36
2019-01-17T04:46:38.649Z,80.47
2019-01-17T04:49:08.193Z,80.49
2019-01-17T04:51:37.725Z,80.96
2019-01-17T04:54:07.230Z,80.80
2019-01-17T04:56:36.729Z,80.42
2019-01-17T04:59:06.188Z,80.16
2019-01-17T05:01:36.003Z,80.88
2019-01-17T05:04:05.591Z,80.52
2019-01-17T05:06:35.086Z,80.01
2019-01-17T05:09:07.463Z,79.59
2019-01-17T05:11:36.973Z,80.97
2019-01-17T05:14:06.539Z,80.27
2019-01-17T05:16:36.081Z,80.66
2019-01-17T05:19:05.633Z,80.79
2019-01-17T05:21:35.089Z,80.20
2019-01-17T05:24:05.315Z,80.54
2019-01-17T05:26:34.803Z,79.86
2019-01-17T05:29:07.021Z,79.88
2019-01-17T05:31:37.407Z,79.65
2019-01-17T05:34:06.889Z,80.72
2019-01-17T05:36:36.377Z,80.84
2019-01-17T05:39:08.035Z,80.51
2019-01-17T05:41:37.545Z,80.84
2019-01-17T05:44:07.020Z,79.91
2019-01-17T05:46:36.525Z,80.03
2019-01-17T05:49:06.071Z,80.51
2019-01-17T05:51:35.539Z,80.20
2019-01-17T05:54:05.178Z,80.18
2019-01-17T05:56:34.684Z,79.58
2019-01-17T05:59:04.154Z,80.01
2019-01-17T06:01:33.646Z,80.27
2019-01-17T06:04:03.142Z,79.49
2019-01-17T06:06:33.205Z,79.43
2019-01-17T06:09:04.555Z,79.41
2019-01-17T06:11:34.039Z,78.72
2019-01-17T06:14:03.585Z,78.47
2019-01-17T06:16:33.557Z,78.56
2019-01-17T06:19:03.021Z,78.43
2019-01-17T06:21:32.525Z,78.46
2019-01-17T06:24:02.039Z,79.26
2019-01-17T06:26:32.171Z,79.13
2019-01-17T06:29:01.760Z,79.23
2019-01-17T06:31:31.301Z,79.69
2019-01-17T06:34:00.768Z,79.52
2019-01-17T06:36:30.234Z,79.40
2019-01-17T06:38:59.860Z,78.59
2019-01-17T06:41:29.321Z,78.06
2019-01-17T06:43:58.819Z,78.27
2019-01-17T06:46:28.343Z,78.56
2019-01-17T06:48:58.395Z,78.55
2019-01-17T06:51:28.363Z,79.07
2019-01-17T06:53:57.919Z,78.07
2019-01-17T06:56:27.395Z,78.50
2019-01-17T06:58:56.874Z,78.54
2019-01-17T07:01:26.732Z,78.00
2019-01-17T07:03:56.197Z,79.31
2019-01-17T07:06:25.799Z,79.49
2019-01-17T07:08:55.684Z,79.01
2019-01-17T07:11:25.171Z,79.27
2019-01-17T07:13:54.652Z,78.86
2019-01-17T07:16:24.179Z,80.02
2019-01-17T07:18:53.685Z,79.83
2019-01-17T07:21:23.153Z,79.37
2019-01-17T07:23:52.985Z,78.53
2019-01-17T07:26:22.533Z,78.63
2019-01-17T07:28:52.021Z,78.69
2019-01-17T07:31:21.583Z,79.01
2019-01-17T07:33:51.042Z,79.03
2019-01-17T07:36:20.529Z,78.66
2019-01-17T07:38:50.052Z,79.02
2019-01-17T07:41:19.495Z,78.39
2019-01-17T07:43:48.983Z,78.01
2019-01-17T07:46:18.828Z,77.67
2019-01-17T07:48:48.300Z,78.42
2019-01-17T07:51:17.962Z,78.63
2019-01-17T07:53:47.493Z,78.19
2019-01-17T07:56:17.020Z,77.54
2019-01-17T07:58:46.473Z,76.78
2019-01-17T08:01:15.979Z,76.83
2019-01-17T08:03:45.576Z,76.99
2019-01-17T08:06:15.143Z,77.63
2019-01-17T08:08:45.031Z,77.82
2019-01-17T08:11:14.489Z,77.25
2019-01-17T08:13:44.066Z,76.61
2019-01-17T08:16:13.606Z,75.91
2019-01-17T08:18:43.100Z,75.86
2019-01-17T08:21:12.586Z,75.87
2019-01-17T08:23:42.086Z,76.39
2019-01-17T08:26:11.592Z,75.69
2019-01-17T08:28:41.147Z,75.65
2019-01-17T08:31:10.950Z,76.30
2019-01-17T08:33:40.420Z,77.31
2019-01-17T08:36:09.966Z,76.74
2019-01-17T08:38:39.505Z,76.45
2019-01-17T08:41:08.974Z,75.41
2019-01-17T08:43:38.494Z,75.06
2019-01-17T08:46:07.979Z,76.29
2019-01-17T08:48:37.484Z,76.19
2019-01-17T08:51:07.807Z,75.68
2019-01-17T08:53:38.735Z,76.02
2019-01-17T08:56:08.322Z,76.60
2019-01-17T08:58:37.815Z,76.72
2019-01-17T09:01:08.984Z,76.43
2019-01-17T09:03:38.494Z,75.67
2019-01-17T09:06:08.014Z,74.84
2019-01-17T09:08:37.552Z,75.51
2019-01-17T09:11:07.518Z,76.46
2019-01-17T09:13:36.993Z,75.42
2019-01-17T09:16:06.803Z,76.31
2019-01-17T09:18:36.306Z,76.57
2019-01-17T09:21:05.785Z,75.98
2019-01-17T09:23:35.260Z,76.22
2019-01-17T09:26:07.583Z,76.95
2019-01-17T09:28:35.968Z,77.05
2019-01-17T09:31:05.638Z,76.80
2019-01-17T09:33:35.137Z,76.60
2019-01-17T09:36:04.691Z,76.32
2019-01-17T09:38:34.242Z,75.87
2019-01-17T09:41:03.729Z,75.70
2019-01-17T09:43:33.199Z,74.58
2019-01-17T09:46:02.705Z,74.40
2019-01-17T09:48:32.210Z,74.53
2019-01-17T09:51:01.744Z,73.79
2019-01-17T09:53:31.268Z,74.00
2019-01-17T09:56:00.769Z,74.73
2019-01-17T09:58:30.266Z,74.91
2019-01-17T10:00:59.805Z,74.76
2019-01-17T10:03:29.303Z,74.63
2019-01-17T10:05:58.771Z,74.37
2019-01-17T10:08:28.282Z,74.03
2019-01-17T10:10:57.753Z,73.77
2019-01-17T10:13:31.985Z,73.79
2019-01-17T10:16:03.734Z,73.56
2019-01-17T10:19:09.431Z,73.63
2019-01-17T10:21:43.659Z,73.39
2019-01-17T10:24:23.061Z,74.26
2019-01-17T10:27:22.579Z,73.61
2019-01-17T10:30:22.645Z,74.22
2019-01-17T10:33:20.786Z,73.36
2019-01-17T10:36:23.608Z,73.69
2019-01-17T10:39:16.916Z,74.24
2019-01-17T10:41:56.652Z,73.98
2019-01-17T10:44:33.549Z,73.04
2019-01-17T10:47:46.684Z,72.97
2019-01-17T10:50:36.140Z,72.79
2019-01-17T10:53:22.589Z,73.79
2019-01-17T10:56:20.557Z,73.16
2019-01-17T10:59:03.557Z,72.62
2019-01-17T11:01:43.609Z,73.61
2019-01-17T11:04:44.573Z,70.13
2019-01-17T11:07:49.726Z,70.77
2019-01-17T11:10:43.037Z,69.08
2019-01-17T11:13:45.928Z,69.76
2019-01-17T11:17:00.385Z,69.77
2019-01-17T11:19:42.583Z,70.97
2019-01-17T11:22:31.748Z,73.09
2019-01-17T11:25:22.444Z,72.56
2019-01-17T11:28:08.437Z,72.58
2019-01-17T11:31:33.245Z,72.26
2019-01-17T11:37:46.427Z,71.88
2019-01-17T11:40:45.549Z,72.26
2019-01-17T11:43:57.273Z,71.83
2019-01-17T11:46:31.448Z,72.29
2019-01-17T11:49:14.615Z,72.73
2019-01-17T11:52:00.533Z,72.53
2019-01-17T11:54:43.774Z,72.96
2019-01-17T11:57:33.158Z,71.75
2019-01-17T12:00:36.015Z,70.98
2019-01-17T12:03:22.160Z,70.57
2019-01-17T12:05:51.693Z,71.32
2019-01-17T12:08:21.160Z,72.03
2019-01-17T12:10:50.641Z,72.16
2019-01-17T12:13:20.121Z,74.15
2019-01-17T12:15:49.583Z,72.27
2019-01-17T12:18:19.068Z,69.95
2019-01-17T12:20:49.040Z,67.61
2019-01-17T12:23:18.555Z,70.18
2019-01-17T12:25:48.526Z,70.15
2019-01-17T12:28:18.021Z,70.52
2019-01-17T12:30:47.499Z,71.88
2019-01-17T12:33:17.055Z,72.87
2019-01-17T12:35:46.596Z,73.11
2019-01-17T12:38:16.355Z,73.31
2019-01-17T12:40:45.859Z,73.17
2019-01-17T12:43:15.821Z,72.70
2019-01-17T12:45:45.375Z,73.98
2019-01-17T12:48:14.877Z,73.92
2019-01-17T12:50:44.409Z,73.00
2019-01-17T12:53:14.036Z,71.56
2019-01-17T12:55:43.525Z,70.36
2019-01-17T12:58:13.036Z,68.67
2019-01-17T13:00:42.513Z,68.03
2019-01-17T13:03:12.047Z,68.03
2019-01-17T13:05:41.982Z,69.06
2019-01-17T13:08:11.499Z,71.68
2019-01-17T13:10:40.968Z,72.56
2019-01-17T13:13:10.471Z,71.06
2019-01-17T13:15:39.975Z,68.11
2019-01-17T13:18:09.464Z,64.65
2019-01-17T13:20:39.093Z,62.35
2019-01-17T13:23:08.669Z,60.91
2019-01-17T13:25:38.305Z,62.11
2019-01-17T13:28:08.483Z,66.90
2019-01-17T13:30:37.953Z,69.52
2019-01-17T13:33:07.525Z,70.77
2019-01-17T13:35:37.158Z,71.65
2019-01-17T13:38:06.688Z,72.87
2019-01-17T13:40:36.176Z,72.10
2019-01-17T13:43:06.111Z,71.61
2019-01-17T13:45:35.619Z,72.76
2019-01-17T13:48:06.037Z,72.21
2019-01-17T13:50:35.963Z,73.08
2019-01-17T13:53:05.970Z,72.55
2019-01-17T13:55:35.439Z,71.83
2019-01-17T13:58:05.046Z,72.55
2019-01-17T14:00:34.544Z,71.99
2019-01-17T14:03:04.025Z,72.24
2019-01-17T14:05:33.998Z,73.46
2019-01-17T14:08:04.621Z,74.08
2019-01-17T14:10:34.232Z,74.27
2019-01-17T14:13:04.191Z,74.81
2019-01-17T14:15:33.652Z,74.71
2019-01-17T14:18:03.566Z,75.40
2019-01-17T14:20:33.073Z,74.97
2019-01-17T14:23:02.552Z,74.80
2019-01-17T14:25:32.022Z,74.59
2019-01-17T14:28:01.506Z,74.39
2019-01-17T14:30:34.673Z,75.28
2019-01-17T14:33:04.231Z,75.86
2019-01-17T14:35:34.006Z,76.26
2019-01-17T14:38:03.572Z,76.80
2019-01-17T14:40:33.041Z,77.77
2019-01-17T14:43:02.582Z,78.05
2019-01-17T14:45:32.054Z,77.65
2019-01-17T14:48:02.252Z,77.24
2019-01-17T14:50:32.831Z,76.64
2019-01-17T14:53:02.346Z,76.39
2019-01-17T14:55:31.880Z,76.42
2019-01-17T14:58:01.554Z,75.89
2019-01-17T15:00:33.362Z,76.20
2019-01-17T15:03:02.915Z,76.46
2019-01-17T15:05:32.468Z,78.92
2019-01-17T15:08:02.045Z,79.79
2019-01-17T15:10:37.758Z,78.61
2019-01-17T15:13:07.936Z,80.86
2019-01-17T15:15:37.788Z,79.38
2019-01-17T15:18:08.079Z,78.89
2019-01-17T15:20:37.606Z,80.15
2019-01-17T15:23:07.334Z,79.77
2019-01-17T15:25:36.966Z,79.00
2019-01-17T15:28:06.466Z,78.67
2019-01-17T15:30:36.105Z,79.21
2019-01-17T15:33:06.063Z,78.62
2019-01-17T15:35:35.556Z,78.74
2019-01-17T15:38:05.066Z,79.07
2019-01-17T15:40:34.834Z,79.34
2019-01-17T15:43:04.322Z,79.73
2019-01-17T15:45:33.872Z,80.14
2019-01-17T15:48:03.424Z,79.70
2019-01-17T15:50:32.930Z,79.32
2019-01-17T15:53:02.406Z,79.68
2019-01-17T15:55:31.880Z,79.72
2019-01-17T15:58:01.358Z,80.86
2019-01-17T16:00:32.081Z,80.92
2019-01-17T16:03:01.698Z,80.25
2019-01-17T16:05:31.220Z,80.64
2019-01-17T16:08:01.144Z,80.41
2019-01-17T16:10:30.651Z,80.33
2019-01-17T16:13:00.130Z,80.55
2019-01-17T16:15:29.614Z,80.77
2019-01-17T16:17:59.137Z,81.06
2019-01-17T16:20:29.264Z,81.32
2019-01-17T16:22:58.734Z,81.10
2019-01-17T16:25:28.572Z,81.03
2019-01-17T16:27:58.048Z,81.05
2019-01-17T16:30:30.134Z,80.25
2019-01-17T16:32:59.630Z,80.45
2019-01-17T16:35:29.290Z,80.06
2019-01-17T16:37:58.786Z,80.25
2019-01-17T16:40:28.342Z,80.69
2019-01-17T16:42:57.813Z,80.68
2019-01-17T16:45:27.292Z,80.66
2019-01-17T16:47:57.276Z,80.30
2019-01-17T16:50:27.106Z,80.41
2019-01-17T16:52:56.590Z,80.78
2019-01-17T16:55:26.090Z,81.04
2019-01-17T16:57:55.544Z,81.01
2019-01-17T17:00:32.396Z,81.20
2019-01-17T17:03:01.877Z,80.89
2019-01-17T17:05:31.352Z,81.56
2019-01-17T17:08:01.336Z,81.62
2019-01-17T17:10:30.808Z,81.69
2019-01-17T17:13:00.274Z,80.93
2019-01-17T17:15:29.823Z,80.45
2019-01-17T17:17:59.255Z,80.36
2019-01-17T17:20:29.116Z,80.00
2019-01-17T17:22:58.626Z,79.92
2019-01-17T17:25:28.122Z,79.11
2019-01-17T17:27:57.585Z,79.17
2019-01-17T17:30:29.312Z,78.62
2019-01-17T17:32:59.201Z,78.66
2019-01-17T17:35:28.682Z,77.66
2019-01-17T17:37:58.208Z,77.81
2019-01-17T17:40:29.359Z,78.25
2019-01-17T17:42:58.990Z,77.87
2019-01-17T17:45:28.686Z,78.11
2019-01-17T17:47:58.359Z,78.26
2019-01-17T17:50:28.204Z,77.92
2019-01-17T17:52:57.778Z,77.59
2019-01-17T17:55:27.411Z,77.65
2019-01-17T17:58:02.298Z,77.49
2019-01-17T18:00:37.788Z,78.15
2019-01-17T18:03:08.417Z,77.64
2019-01-17T18:05:38.458Z,77.51
2019-01-17T18:08:08.301Z,77.41
2019-01-17T18:10:37.820Z,76.63
2019-01-17T18:13:07.281Z,77.74
2019-01-17T18:15:37.042Z,76.95
2019-01-17T18:18:06.878Z,76.87
2019-01-17T18:20:36.352Z,77.21
2019-01-17T18:23:05.864Z,77.10
2019-01-17T18:25:35.343Z,77.01
2019-01-17T18:28:08.826Z,76.76
2019-01-17T18:30:36.875Z,76.74
2019-01-17T18:33:06.389Z,77.73
2019-01-17T18:35:35.961Z,78.65
2019-01-17T18:38:05.968Z,78.60
2019-01-17T18:40:35.469Z,78.04
2019-01-17T18:43:05.030Z,78.45
2019-01-17T18:45:34.530Z,78.55
2019-01-17T18:48:04.099Z,78.77
2019-01-17T18:50:36.295Z,78.71
2019-01-17T18:53:06.626Z,79.25
2019-01-17T18:55:36.103Z,78.46
2019-01-17T18:58:06.053Z,78.88
2019-01-17T19:00:35.551Z,78.75
2019-01-17T19:03:05.085Z,79.08
2019-01-17T19:05:34.668Z,78.54
2019-01-17T19:08:04.252Z,79.20
2019-01-17T19:10:33.799Z,78.25
2019-01-17T19:13:03.287Z,78.75
2019-01-17T19:15:33.583Z,77.47
2019-01-17T19:18:03.059Z,78.22
2019-01-17T19:20:32.697Z,78.05
2019-01-17T19:23:02.213Z,78.12
2019-01-17T19:25:31.723Z,78.16
2019-01-17T19:28:01.191Z,77.70
2019-01-17T19:30:31.598Z,78.29
2019-01-17T19:33:01.171Z,78.07
2019-01-17T19:35:30.673Z,78.16
2019-01-17T19:38:00.260Z,77.89
2019-01-17T19:40:30.716Z,77.92
2019-01-17T19:43:00.328Z,78.34
2019-01-17T19:45:29.846Z,78.93
2019-01-17T19:47:59.314Z,78.17
2019-01-17T19:50:32.419Z,78.68
2019-01-17T19:53:02.204Z,77.87
2019-01-17T19:55:31.672Z,78.14
2019-01-17T19:58:01.169Z,78.38
2019-01-17T20:00:30.740Z,78.43
2019-01-17T20:03:00.195Z,77.85
2019-01-17T20:05:33.083Z,78.70
2019-01-17T20:08:02.733Z,78.77
2019-01-17T20:10:34.560Z,78.40
2019-01-17T20:13:04.503Z,78.20
2019-01-17T20:15:34.280Z,77.78
2019-01-17T20:18:03.765Z,78.31
2019-01-17T20:20:33.858Z,78.31
2019-01-17T20:23:03.729Z,77.64
2019-01-17T20:25:33.198Z,78.32
2019-01-17T20:28:02.718Z,78.19
2019-01-17T20:30:33.988Z,77.81
2019-01-17T20:33:07.513Z,77.31
2019-01-17T20:35:37.055Z,77.35
2019-01-17T20:38:07.211Z,78.64
2019-01-17T20:40:36.701Z,78.72
2019-01-17T20:43:06.249Z,79.43
2019-01-17T20:45:35.742Z,79.08
2019-01-17T20:48:05.369Z,77.74
2019-01-17T20:50:34.870Z,78.18
2019-01-17T20:53:04.410Z,78.02
2019-01-17T20:55:33.951Z,77.20
2019-01-17T20:58:03.518Z,77.16
2019-01-17T21:00:47.212Z,76.65
2019-01-17T21:03:18.847Z,77.10
2019-01-17T21:05:48.796Z,77.06
2019-01-17T21:08:18.426Z,76.64
2019-01-17T21:10:47.885Z,76.60
2019-01-17T21:13:17.381Z,77.18
2019-01-17T21:15:46.912Z,77.39
2019-01-17T21:18:16.390Z,76.42
2019-01-17T21:20:45.994Z,75.85
2019-01-17T21:23:16.087Z,76.25
2019-01-17T21:25:45.621Z,76.24
2019-01-17T21:28:15.142Z,75.43
2019-01-17T21:30:44.761Z,75.50
2019-01-17T21:33:14.270Z,77.18
2019-01-17T21:35:43.744Z,76.60
2019-01-17T21:38:14.057Z,76.91
2019-01-17T21:40:43.602Z,77.32
2019-01-17T21:43:13.107Z,76.76
2019-01-17T21:45:43.023Z,76.53
2019-01-17T21:48:12.552Z,76.10
2019-01-17T21:50:42.091Z,75.95
2019-01-17T21:53:11.672Z,75.85
2019-01-17T21:55:41.154Z,76.31
2019-01-17T21:58:10.749Z,76.57
2019-01-17T22:00:41.892Z,76.42
2019-01-17T22:03:11.429Z,77.22
2019-01-17T22:05:40.924Z,77.61
2019-01-17T22:08:10.879Z,76.75
2019-01-17T22:10:40.418Z,75.88
2019-01-17T22:13:09.888Z,76.83
2019-01-17T22:15:39.848Z,75.64
2019-01-17T22:18:09.471Z,75.75
2019-01-17T22:20:38.942Z,74.93
2019-01-17T22:23:09.121Z,76.08
2019-01-17T22:25:38.600Z,76.70
2019-01-17T22:28:08.079Z,77.02
2019-01-17T22:30:37.671Z,77.30
2019-01-17T22:33:07.143Z,77.04
2019-01-17T22:35:36.748Z,76.85
2019-01-17T22:38:06.267Z,77.31
2019-01-17T22:40:35.808Z,77.86
2019-01-17T22:43:05.555Z,76.96
2019-01-17T22:45:35.122Z,77.61
2019-01-17T22:48:04.643Z,77.70
2019-01-17T22:50:34.123Z,77.95
2019-01-17T22:53:03.749Z,77.83
2019-01-17T22:55:33.362Z,77.26
2019-01-17T22:58:02.850Z,77.04
2019-01-17T23:00:49.657Z,77.26
2019-01-17T23:03:26.108Z,76.80
2019-01-17T23:05:55.835Z,76.90
2019-01-17T23:08:25.921Z,77.16
2019-01-17T23:10:55.357Z,78.29
2019-01-17T23:13:24.947Z,77.50
2019-01-17T23:15:54.438Z,77.29
2019-01-17T23:18:23.921Z,77.45
2019-01-17T23:20:53.419Z,77.12
2019-01-17T23:23:22.904Z,76.83
2019-01-17T23:25:52.380Z,76.57
2019-01-17T23:28:21.913Z,77.52
2019-01-17T23:30:51.408Z,77.44
2019-01-17T23:33:21.236Z,77.81
2019-01-17T23:35:50.861Z,77.20
2019-01-17T23:38:20.352Z,77.95
2019-01-17T23:40:49.827Z,76.92
2019-01-17T23:43:19.551Z,76.01
2019-01-17T23:45:49.020Z,75.70
2019-01-17T23:48:18.531Z,76.90
2019-01-17T23:50:48.054Z,77.33
2019-01-17T23:53:17.517Z,76.84
2019-01-17T23:55:47.002Z,76.47
2019-01-17T23:58:16.606Z,76.18
